sensor_id;sensor_type;location;lat;lon;timestamp;P1;durP1;ratioP1;P2;durP2;ratioP2
10902;SDS011;5504;47.312;11.060;2023-04-03T00:01:29;0.40;;;0.40;;
10902;SDS011;5504;47.312;11.060;2023-04-03T00:03:55;0.47;;;0.40;;
10902;SDS011;5504;47.312;11.060;2023-04-03T00:06:21;0.30;;;0.30;;
10902;SDS011;5504;47.312;11.060;2023-04-03T00:08:47;0.30;;;0.30;;
10902;SDS011;5504;47.312;11.060;2023-04-03T00:11:14;0.50;;;0.50;;
10902;SDS011;5504;47.312;11.060;2023-04-03T00:13:40;0.47;;;0.47;;
10902;SDS011;5504;47.312;11.060;2023-04-03T00:16:07;0.40;;;0.40;;
10902;SDS011;5504;47.312;11.060;2023-04-03T00:18:33;0.30;;;0.30;;
10902;SDS011;5504;47.312;11.060;2023-04-03T00:20:59;0.47;;;0.40;;
10902;SDS011;5504;47.312;11.060;2023-04-03T00:23:25;0.37;;;0.37;;
10902;SDS011;5504;47.312;11.060;2023-04-03T00:25:51;0.20;;;0.20;;
10902;SDS011;5504;47.312;11.060;2023-04-03T00:28:18;1.13;;;0.37;;
10902;SDS011;5504;47.312;11.060;2023-04-03T00:30:44;0.30;;;0.30;;
10902;SDS011;5504;47.312;11.060;2023-04-03T00:33:13;0.40;;;0.40;;
10902;SDS011;5504;47.312;11.060;2023-04-03T00:35:39;0.30;;;0.30;;
10902;SDS011;5504;47.312;11.060;2023-04-03T00:38:05;0.30;;;0.30;;
10902;SDS011;5504;47.312;11.060;2023-04-03T00:40:34;0.40;;;0.40;;
10902;SDS011;5504;47.312;11.060;2023-04-03T00:43:01;0.50;;;0.50;;
10902;SDS011;5504;47.312;11.060;2023-04-03T00:45:40;0.40;;;0.40;;
10902;SDS011;5504;47.312;11.060;2023-04-03T00:48:13;1.10;;;0.30;;
10902;SDS011;5504;47.312;11.060;2023-04-03T00:51:00;0.30;;;0.30;;
10902;SDS011;5504;47.312;11.060;2023-04-03T00:53:31;0.40;;;0.40;;
10902;SDS011;5504;47.312;11.060;2023-04-03T00:56:05;0.40;;;0.40;;
10902;SDS011;5504;47.312;11.060;2023-04-03T00:58:37;0.47;;;0.40;;
10902;SDS011;5504;47.312;11.060;2023-04-03T01:01:07;0.40;;;0.40;;
10902;SDS011;5504;47.312;11.060;2023-04-03T01:03:37;0.30;;;0.30;;
10902;SDS011;5504;47.312;11.060;2023-04-03T01:06:03;0.67;;;0.30;;
10902;SDS011;5504;47.312;11.060;2023-04-03T01:08:29;0.30;;;0.30;;
10902;SDS011;5504;47.312;11.060;2023-04-03T01:10:55;0.27;;;0.27;;
10902;SDS011;5504;47.312;11.060;2023-04-03T01:15:52;0.30;;;0.30;;
10902;SDS011;5504;47.312;11.060;2023-04-03T01:18:18;0.30;;;0.30;;
10902;SDS011;5504;47.312;11.060;2023-04-03T01:20:59;0.30;;;0.30;;
10902;SDS011;5504;47.312;11.060;2023-04-03T01:26:49;0.60;;;0.40;;
10902;SDS011;5504;47.312;11.060;2023-04-03T01:29:15;0.30;;;0.30;;
10902;SDS011;5504;47.312;11.060;2023-04-03T01:31:46;0.30;;;0.30;;
10902;SDS011;5504;47.312;11.060;2023-04-03T01:34:14;0.40;;;0.40;;
10902;SDS011;5504;47.312;11.060;2023-04-03T01:36:39;0.33;;;0.33;;
10902;SDS011;5504;47.312;11.060;2023-04-03T01:39:05;0.50;;;0.40;;
10902;SDS011;5504;47.312;11.060;2023-04-03T01:41:31;0.30;;;0.30;;
10902;SDS011;5504;47.312;11.060;2023-04-03T01:43:57;0.30;;;0.30;;
10902;SDS011;5504;47.312;11.060;2023-04-03T01:46:23;0.40;;;0.40;;
10902;SDS011;5504;47.312;11.060;2023-04-03T01:48:49;0.50;;;0.50;;
10902;SDS011;5504;47.312;11.060;2023-04-03T01:51:15;0.40;;;0.40;;
10902;SDS011;5504;47.312;11.060;2023-04-03T01:53:41;0.40;;;0.40;;
10902;SDS011;5504;47.312;11.060;2023-04-03T01:56:07;0.43;;;0.43;;
10902;SDS011;5504;47.312;11.060;2023-04-03T01:58:33;0.50;;;0.50;;
10902;SDS011;5504;47.312;11.060;2023-04-03T02:00:59;0.60;;;0.50;;
10902;SDS011;5504;47.312;11.060;2023-04-03T02:03:25;0.40;;;0.40;;
10902;SDS011;5504;47.312;11.060;2023-04-03T02:05:51;0.47;;;0.47;;
10902;SDS011;5504;47.312;11.060;2023-04-03T02:08:17;0.50;;;0.50;;
10902;SDS011;5504;47.312;11.060;2023-04-03T02:10:44;0.77;;;0.60;;
10902;SDS011;5504;47.312;11.060;2023-04-03T02:13:12;0.67;;;0.50;;
10902;SDS011;5504;47.312;11.060;2023-04-03T02:15:38;1.90;;;0.80;;
10902;SDS011;5504;47.312;11.060;2023-04-03T02:18:04;0.70;;;0.70;;
10902;SDS011;5504;47.312;11.060;2023-04-03T02:20:31;0.80;;;0.80;;
10902;SDS011;5504;47.312;11.060;2023-04-03T02:22:56;0.80;;;0.80;;
10902;SDS011;5504;47.312;11.060;2023-04-03T02:25:22;0.83;;;0.83;;
10902;SDS011;5504;47.312;11.060;2023-04-03T02:27:48;0.80;;;0.80;;
10902;SDS011;5504;47.312;11.060;2023-04-03T02:30:13;1.07;;;0.97;;
10902;SDS011;5504;47.312;11.060;2023-04-03T02:32:40;1.00;;;1.00;;
10902;SDS011;5504;47.312;11.060;2023-04-03T02:35:06;0.90;;;0.90;;
10902;SDS011;5504;47.312;11.060;2023-04-03T02:37:32;1.03;;;1.03;;
10902;SDS011;5504;47.312;11.060;2023-04-03T02:39:58;1.30;;;1.20;;
10902;SDS011;5504;47.312;11.060;2023-04-03T02:42:24;0.90;;;0.90;;
10902;SDS011;5504;47.312;11.060;2023-04-03T02:44:50;1.10;;;0.93;;
10902;SDS011;5504;47.312;11.060;2023-04-03T02:47:15;0.90;;;0.90;;
10902;SDS011;5504;47.312;11.060;2023-04-03T02:49:41;1.20;;;1.10;;
10902;SDS011;5504;47.312;11.060;2023-04-03T02:52:09;1.27;;;0.80;;
10902;SDS011;5504;47.312;11.060;2023-04-03T02:54:35;1.50;;;0.80;;
10902;SDS011;5504;47.312;11.060;2023-04-03T02:57:01;1.20;;;1.10;;
10902;SDS011;5504;47.312;11.060;2023-04-03T02:59:27;1.27;;;1.17;;
10902;SDS011;5504;47.312;11.060;2023-04-03T03:01:52;1.23;;;1.13;;
10902;SDS011;5504;47.312;11.060;2023-04-03T03:04:18;1.10;;;1.07;;
10902;SDS011;5504;47.312;11.060;2023-04-03T03:06:44;1.03;;;1.00;;
10902;SDS011;5504;47.312;11.060;2023-04-03T03:09:11;0.90;;;0.90;;
10902;SDS011;5504;47.312;11.060;2023-04-03T03:11:38;1.10;;;1.00;;
10902;SDS011;5504;47.312;11.060;2023-04-03T03:14:04;1.07;;;1.07;;
10902;SDS011;5504;47.312;11.060;2023-04-03T03:16:30;1.30;;;1.20;;
10902;SDS011;5504;47.312;11.060;2023-04-03T03:18:55;1.47;;;1.37;;
10902;SDS011;5504;47.312;11.060;2023-04-03T03:21:21;1.30;;;1.20;;
10902;SDS011;5504;47.312;11.060;2023-04-03T03:23:47;1.23;;;1.13;;
10902;SDS011;5504;47.312;11.060;2023-04-03T03:26:12;1.10;;;1.10;;
10902;SDS011;5504;47.312;11.060;2023-04-03T03:28:39;1.30;;;1.20;;
10902;SDS011;5504;47.312;11.060;2023-04-03T03:31:05;1.20;;;1.10;;
10902;SDS011;5504;47.312;11.060;2023-04-03T03:33:31;1.40;;;1.30;;
10902;SDS011;5504;47.312;11.060;2023-04-03T03:35:57;1.30;;;1.30;;
10902;SDS011;5504;47.312;11.060;2023-04-03T03:38:23;1.57;;;1.47;;
10902;SDS011;5504;47.312;11.060;2023-04-03T03:40:49;1.60;;;1.50;;
10902;SDS011;5504;47.312;11.060;2023-04-03T03:43:16;1.60;;;1.50;;
10902;SDS011;5504;47.312;11.060;2023-04-03T03:45:42;1.70;;;1.60;;
10902;SDS011;5504;47.312;11.060;2023-04-03T03:48:08;1.80;;;1.70;;
10902;SDS011;5504;47.312;11.060;2023-04-03T03:50:34;1.60;;;1.50;;
10902;SDS011;5504;47.312;11.060;2023-04-03T03:53:00;1.80;;;1.70;;
10902;SDS011;5504;47.312;11.060;2023-04-03T03:55:26;2.50;;;2.30;;
10902;SDS011;5504;47.312;11.060;2023-04-03T03:57:52;1.73;;;1.60;;
10902;SDS011;5504;47.312;11.060;2023-04-03T04:00:18;1.90;;;1.80;;
10902;SDS011;5504;47.312;11.060;2023-04-03T04:02:44;2.30;;;2.10;;
10902;SDS011;5504;47.312;11.060;2023-04-03T04:05:09;2.20;;;2.00;;
10902;SDS011;5504;47.312;11.060;2023-04-03T04:07:35;1.77;;;1.67;;
10902;SDS011;5504;47.312;11.060;2023-04-03T04:10:01;2.30;;;1.97;;
10902;SDS011;5504;47.312;11.060;2023-04-03T04:12:27;2.50;;;2.30;;
10902;SDS011;5504;47.312;11.060;2023-04-03T04:14:53;1.90;;;1.80;;
10902;SDS011;5504;47.312;11.060;2023-04-03T04:17:18;1.60;;;1.50;;
10902;SDS011;5504;47.312;11.060;2023-04-03T04:19:44;2.10;;;1.90;;
10902;SDS011;5504;47.312;11.060;2023-04-03T04:22:10;1.90;;;1.80;;
10902;SDS011;5504;47.312;11.060;2023-04-03T04:24:36;2.40;;;2.07;;
10902;SDS011;5504;47.312;11.060;2023-04-03T04:27:02;2.33;;;2.20;;
10902;SDS011;5504;47.312;11.060;2023-04-03T04:29:28;3.67;;;3.37;;
10902;SDS011;5504;47.312;11.060;2023-04-03T04:31:53;5.87;;;4.67;;
10902;SDS011;5504;47.312;11.060;2023-04-03T04:34:19;7.83;;;6.40;;
10902;SDS011;5504;47.312;11.060;2023-04-03T04:36:46;7.90;;;6.37;;
10902;SDS011;5504;47.312;11.060;2023-04-03T04:39:11;2.57;;;2.37;;
10902;SDS011;5504;47.312;11.060;2023-04-03T04:41:37;2.00;;;1.90;;
10902;SDS011;5504;47.312;11.060;2023-04-03T04:44:03;1.90;;;1.80;;
10902;SDS011;5504;47.312;11.060;2023-04-03T04:46:28;1.70;;;1.60;;
10902;SDS011;5504;47.312;11.060;2023-04-03T04:48:54;2.43;;;2.10;;
10902;SDS011;5504;47.312;11.060;2023-04-03T04:51:20;2.27;;;2.07;;
10902;SDS011;5504;47.312;11.060;2023-04-03T04:53:45;2.00;;;1.90;;
10902;SDS011;5504;47.312;11.060;2023-04-03T04:56:11;2.10;;;1.90;;
10902;SDS011;5504;47.312;11.060;2023-04-03T04:58:37;2.07;;;1.90;;
10902;SDS011;5504;47.312;11.060;2023-04-03T05:01:06;2.07;;;1.87;;
10902;SDS011;5504;47.312;11.060;2023-04-03T05:03:33;2.30;;;2.10;;
10902;SDS011;5504;47.312;11.060;2023-04-03T05:05:59;2.33;;;2.13;;
10902;SDS011;5504;47.312;11.060;2023-04-03T05:08:25;2.40;;;2.20;;
10902;SDS011;5504;47.312;11.060;2023-04-03T05:10:51;3.03;;;2.20;;
10902;SDS011;5504;47.312;11.060;2023-04-03T05:13:18;3.70;;;2.47;;
10902;SDS011;5504;47.312;11.060;2023-04-03T05:15:45;2.27;;;2.17;;
10902;SDS011;5504;47.312;11.060;2023-04-03T05:18:11;2.60;;;2.40;;
10902;SDS011;5504;47.312;11.060;2023-04-03T05:20:37;2.90;;;2.60;;
10902;SDS011;5504;47.312;11.060;2023-04-03T05:23:03;2.33;;;2.00;;
10902;SDS011;5504;47.312;11.060;2023-04-03T05:25:28;2.57;;;2.37;;
10902;SDS011;5504;47.312;11.060;2023-04-03T05:27:54;2.50;;;2.30;;
10902;SDS011;5504;47.312;11.060;2023-04-03T05:30:20;3.43;;;2.50;;
10902;SDS011;5504;47.312;11.060;2023-04-03T05:32:47;4.30;;;2.90;;
10902;SDS011;5504;47.312;11.060;2023-04-03T05:35:12;13.60;;;8.77;;
10902;SDS011;5504;47.312;11.060;2023-04-03T05:37:38;9.47;;;6.30;;
10902;SDS011;5504;47.312;11.060;2023-04-03T05:40:04;4.20;;;3.10;;
10902;SDS011;5504;47.312;11.060;2023-04-03T05:42:31;3.20;;;2.90;;
10902;SDS011;5504;47.312;11.060;2023-04-03T05:44:56;3.10;;;2.80;;
10902;SDS011;5504;47.312;11.060;2023-04-03T05:47:22;2.70;;;2.50;;
10902;SDS011;5504;47.312;11.060;2023-04-03T05:49:48;5.83;;;4.50;;
10902;SDS011;5504;47.312;11.060;2023-04-03T05:52:25;3.27;;;2.97;;
10902;SDS011;5504;47.312;11.060;2023-04-03T05:54:53;2.70;;;2.50;;
10902;SDS011;5504;47.312;11.060;2023-04-03T05:57:19;3.00;;;2.80;;
10902;SDS011;5504;47.312;11.060;2023-04-03T05:59:46;3.10;;;2.80;;
10902;SDS011;5504;47.312;11.060;2023-04-03T06:02:13;3.47;;;3.17;;
10902;SDS011;5504;47.312;11.060;2023-04-03T06:04:46;3.93;;;3.33;;
10902;SDS011;5504;47.312;11.060;2023-04-03T06:07:20;2.87;;;2.67;;
10902;SDS011;5504;47.312;11.060;2023-04-03T06:09:47;3.27;;;2.93;;
10902;SDS011;5504;47.312;11.060;2023-04-03T06:12:14;3.83;;;3.40;;
10902;SDS011;5504;47.312;11.060;2023-04-03T06:14:40;3.23;;;2.93;;
10902;SDS011;5504;47.312;11.060;2023-04-03T06:17:06;3.70;;;3.40;;
10902;SDS011;5504;47.312;11.060;2023-04-03T06:19:33;4.03;;;3.40;;
10902;SDS011;5504;47.312;11.060;2023-04-03T06:22:00;4.17;;;3.77;;
10902;SDS011;5504;47.312;11.060;2023-04-03T06:24:25;4.63;;;4.20;;
10902;SDS011;5504;47.312;11.060;2023-04-03T06:26:51;4.50;;;3.80;;
10902;SDS011;5504;47.312;11.060;2023-04-03T06:29:20;4.10;;;3.70;;
10902;SDS011;5504;47.312;11.060;2023-04-03T06:31:47;4.93;;;4.20;;
10902;SDS011;5504;47.312;11.060;2023-04-03T06:34:13;4.60;;;4.13;;
10902;SDS011;5504;47.312;11.060;2023-04-03T06:36:40;5.30;;;4.30;;
10902;SDS011;5504;47.312;11.060;2023-04-03T06:39:06;5.27;;;4.17;;
10902;SDS011;5504;47.312;11.060;2023-04-03T06:41:34;4.50;;;4.10;;
10902;SDS011;5504;47.312;11.060;2023-04-03T06:44:00;6.17;;;5.13;;
10902;SDS011;5504;47.312;11.060;2023-04-03T06:46:26;5.00;;;4.50;;
10902;SDS011;5504;47.312;11.060;2023-04-03T06:48:52;5.37;;;4.13;;
10902;SDS011;5504;47.312;11.060;2023-04-03T06:51:25;5.23;;;4.73;;
10902;SDS011;5504;47.312;11.060;2023-04-03T06:53:53;5.37;;;4.63;;
10902;SDS011;5504;47.312;11.060;2023-04-03T06:56:20;4.60;;;4.20;;
10902;SDS011;5504;47.312;11.060;2023-04-03T06:58:47;5.03;;;4.53;;
10902;SDS011;5504;47.312;11.060;2023-04-03T07:01:13;4.70;;;4.17;;
10902;SDS011;5504;47.312;11.060;2023-04-03T07:03:41;4.10;;;3.70;;
10902;SDS011;5504;47.312;11.060;2023-04-03T07:06:07;4.53;;;4.13;;
10902;SDS011;5504;47.312;11.060;2023-04-03T07:08:36;5.20;;;4.23;;
10902;SDS011;5504;47.312;11.060;2023-04-03T07:11:02;4.57;;;4.17;;
10902;SDS011;5504;47.312;11.060;2023-04-03T07:13:28;4.90;;;4.40;;
10902;SDS011;5504;47.312;11.060;2023-04-03T07:15:54;4.33;;;3.90;;
10902;SDS011;5504;47.312;11.060;2023-04-03T07:18:20;5.47;;;4.57;;
10902;SDS011;5504;47.312;11.060;2023-04-03T07:20:46;5.40;;;4.10;;
10902;SDS011;5504;47.312;11.060;2023-04-03T07:23:12;4.57;;;3.70;;
10902;SDS011;5504;47.312;11.060;2023-04-03T07:25:42;3.13;;;2.83;;
10902;SDS011;5504;47.312;11.060;2023-04-03T07:28:09;4.30;;;3.90;;
10902;SDS011;5504;47.312;11.060;2023-04-03T07:30:34;4.30;;;3.83;;
10902;SDS011;5504;47.312;11.060;2023-04-03T07:33:07;4.93;;;4.23;;
10902;SDS011;5504;47.312;11.060;2023-04-03T07:35:33;4.47;;;4.07;;
10902;SDS011;5504;47.312;11.060;2023-04-03T07:37:58;4.33;;;3.90;;
10902;SDS011;5504;47.312;11.060;2023-04-03T07:40:24;3.60;;;3.30;;
10902;SDS011;5504;47.312;11.060;2023-04-03T07:42:50;3.80;;;3.40;;
10902;SDS011;5504;47.312;11.060;2023-04-03T07:45:16;4.50;;;3.90;;
10902;SDS011;5504;47.312;11.060;2023-04-03T07:47:42;4.00;;;3.50;;
10902;SDS011;5504;47.312;11.060;2023-04-03T07:50:08;2.93;;;2.63;;
10902;SDS011;5504;47.312;11.060;2023-04-03T07:52:33;4.40;;;4.00;;
10902;SDS011;5504;47.312;11.060;2023-04-03T07:54:59;4.83;;;4.17;;
10902;SDS011;5504;47.312;11.060;2023-04-03T07:57:25;4.10;;;3.47;;
10902;SDS011;5504;47.312;11.060;2023-04-03T07:59:51;4.57;;;4.17;;
10902;SDS011;5504;47.312;11.060;2023-04-03T08:02:16;3.80;;;3.40;;
10902;SDS011;5504;47.312;11.060;2023-04-03T08:04:42;3.63;;;3.27;;
10902;SDS011;5504;47.312;11.060;2023-04-03T08:07:07;4.33;;;3.20;;
10902;SDS011;5504;47.312;11.060;2023-04-03T08:09:33;3.30;;;2.93;;
10902;SDS011;5504;47.312;11.060;2023-04-03T08:11:59;3.50;;;3.20;;
10902;SDS011;5504;47.312;11.060;2023-04-03T08:14:24;3.70;;;3.40;;
10902;SDS011;5504;47.312;11.060;2023-04-03T08:16:51;2.90;;;2.70;;
10902;SDS011;5504;47.312;11.060;2023-04-03T08:19:17;4.43;;;3.20;;
10902;SDS011;5504;47.312;11.060;2023-04-03T08:21:43;3.30;;;3.00;;
10902;SDS011;5504;47.312;11.060;2023-04-03T08:24:10;2.80;;;2.60;;
10902;SDS011;5504;47.312;11.060;2023-04-03T08:26:36;4.07;;;3.60;;
10902;SDS011;5504;47.312;11.060;2023-04-03T08:29:02;5.13;;;4.33;;
10902;SDS011;5504;47.312;11.060;2023-04-03T08:31:28;5.77;;;5.20;;
10902;SDS011;5504;47.312;11.060;2023-04-03T08:33:56;6.23;;;5.17;;
10902;SDS011;5504;47.312;11.060;2023-04-03T08:36:23;4.13;;;3.60;;
10902;SDS011;5504;47.312;11.060;2023-04-03T08:38:52;4.63;;;4.20;;
10902;SDS011;5504;47.312;11.060;2023-04-03T08:41:37;4.63;;;4.20;;
10902;SDS011;5504;47.312;11.060;2023-04-03T08:49:39;2.37;;;2.17;;
10902;SDS011;5504;47.312;11.060;2023-04-03T08:52:13;1.87;;;1.77;;
10902;SDS011;5504;47.312;11.060;2023-04-03T08:57:28;2.00;;;1.80;;
10902;SDS011;5504;47.312;11.060;2023-04-03T09:00:15;1.90;;;1.80;;
10902;SDS011;5504;47.312;11.060;2023-04-03T09:02:47;7.50;;;6.70;;
10902;SDS011;5504;47.312;11.060;2023-04-03T09:05:19;5.70;;;3.60;;
10902;SDS011;5504;47.312;11.060;2023-04-03T09:08:09;5.40;;;4.40;;
10902;SDS011;5504;47.312;11.060;2023-04-03T09:10:54;3.57;;;2.80;;
10902;SDS011;5504;47.312;11.060;2023-04-03T09:16:52;1.97;;;1.83;;
10902;SDS011;5504;47.312;11.060;2023-04-03T09:24:45;2.63;;;2.07;;
10902;SDS011;5504;47.312;11.060;2023-04-03T09:27:15;2.27;;;1.93;;
10902;SDS011;5504;47.312;11.060;2023-04-03T09:29:42;2.57;;;2.30;;
10902;SDS011;5504;47.312;11.060;2023-04-03T09:32:45;2.77;;;2.07;;
10902;SDS011;5504;47.312;11.060;2023-04-03T09:35:25;2.40;;;2.20;;
10902;SDS011;5504;47.312;11.060;2023-04-03T09:37:53;2.40;;;2.20;;
10902;SDS011;5504;47.312;11.060;2023-04-03T09:42:50;6.80;;;4.80;;
10902;SDS011;5504;47.312;11.060;2023-04-03T09:50:39;1.43;;;1.33;;
10902;SDS011;5504;47.312;11.060;2023-04-03T09:53:33;1.40;;;1.30;;
10902;SDS011;5504;47.312;11.060;2023-04-03T09:58:45;1.70;;;1.60;;
10902;SDS011;5504;47.312;11.060;2023-04-03T10:01:21;2.63;;;1.80;;
10902;SDS011;5504;47.312;11.060;2023-04-03T10:04:06;1.60;;;1.50;;
10902;SDS011;5504;47.312;11.060;2023-04-03T10:06:39;1.80;;;1.70;;
10902;SDS011;5504;47.312;11.060;2023-04-03T10:17:34;2.00;;;1.80;;
10902;SDS011;5504;47.312;11.060;2023-04-03T10:23:15;1.40;;;1.30;;
10902;SDS011;5504;47.312;11.060;2023-04-03T10:47:21;1.20;;;1.10;;
10902;SDS011;5504;47.312;11.060;2023-04-03T10:57:16;1.50;;;1.40;;
10902;SDS011;5504;47.312;11.060;2023-04-03T11:02:19;1.30;;;1.20;;
10902;SDS011;5504;47.312;11.060;2023-04-03T11:04:48;1.30;;;1.20;;
10902;SDS011;5504;47.312;11.060;2023-04-03T11:07:20;2.00;;;1.30;;
10902;SDS011;5504;47.312;11.060;2023-04-03T11:09:51;1.37;;;1.27;;
10902;SDS011;5504;47.312;11.060;2023-04-03T11:12:36;1.43;;;1.33;;
10902;SDS011;5504;47.312;11.060;2023-04-03T11:15:11;4.23;;;3.73;;
10902;SDS011;5504;47.312;11.060;2023-04-03T11:17:42;1.47;;;1.37;;
10902;SDS011;5504;47.312;11.060;2023-04-03T11:23:00;1.80;;;1.70;;
10902;SDS011;5504;47.312;11.060;2023-04-03T11:25:36;1.50;;;1.40;;
10902;SDS011;5504;47.312;11.060;2023-04-03T11:28:09;1.50;;;1.40;;
10902;SDS011;5504;47.312;11.060;2023-04-03T11:31:01;1.47;;;1.37;;
10902;SDS011;5504;47.312;11.060;2023-04-03T11:39:19;1.30;;;1.20;;
10902;SDS011;5504;47.312;11.060;2023-04-03T11:50:54;1.37;;;0.93;;
10902;SDS011;5504;47.312;11.060;2023-04-03T11:53:26;1.23;;;0.90;;
10902;SDS011;5504;47.312;11.060;2023-04-03T11:55:53;0.70;;;0.70;;
10902;SDS011;5504;47.312;11.060;2023-04-03T11:58:21;1.57;;;1.30;;
10902;SDS011;5504;47.312;11.060;2023-04-03T12:16:25;2.10;;;1.57;;
10902;SDS011;5504;47.312;11.060;2023-04-03T12:18:55;1.27;;;1.20;;
10902;SDS011;5504;47.312;11.060;2023-04-03T12:24:23;2.30;;;2.10;;
10902;SDS011;5504;47.312;11.060;2023-04-03T12:34:48;1.33;;;1.17;;
10902;SDS011;5504;47.312;11.060;2023-04-03T12:40:10;1.30;;;1.20;;
10902;SDS011;5504;47.312;11.060;2023-04-03T12:45:40;1.50;;;1.40;;
10902;SDS011;5504;47.312;11.060;2023-04-03T12:48:12;1.60;;;1.50;;
10902;SDS011;5504;47.312;11.060;2023-04-03T12:50:45;1.30;;;1.20;;
10902;SDS011;5504;47.312;11.060;2023-04-03T12:53:13;1.60;;;1.50;;
10902;SDS011;5504;47.312;11.060;2023-04-03T12:55:44;1.50;;;1.40;;
10902;SDS011;5504;47.312;11.060;2023-04-03T12:58:16;1.20;;;1.10;;
10902;SDS011;5504;47.312;11.060;2023-04-03T13:00:46;1.73;;;1.37;;
10902;SDS011;5504;47.312;11.060;2023-04-03T13:03:28;1.60;;;1.50;;
10902;SDS011;5504;47.312;11.060;2023-04-03T13:05:55;1.70;;;1.60;;
10902;SDS011;5504;47.312;11.060;2023-04-03T13:08:24;1.27;;;1.20;;
10902;SDS011;5504;47.312;11.060;2023-04-03T13:10:58;1.57;;;1.40;;
10902;SDS011;5504;47.312;11.060;2023-04-03T13:13:33;1.70;;;1.60;;
10902;SDS011;5504;47.312;11.060;2023-04-03T13:15:59;1.43;;;1.33;;
10902;SDS011;5504;47.312;11.060;2023-04-03T13:18:35;1.80;;;1.60;;
10902;SDS011;5504;47.312;11.060;2023-04-03T13:21:13;2.00;;;1.77;;
10902;SDS011;5504;47.312;11.060;2023-04-03T13:23:42;2.47;;;2.27;;
10902;SDS011;5504;47.312;11.060;2023-04-03T13:26:11;1.70;;;1.60;;
10902;SDS011;5504;47.312;11.060;2023-04-03T13:28:41;1.87;;;1.77;;
10902;SDS011;5504;47.312;11.060;2023-04-03T13:31:09;2.57;;;2.20;;
10902;SDS011;5504;47.312;11.060;2023-04-03T13:33:58;2.27;;;2.07;;
10902;SDS011;5504;47.312;11.060;2023-04-03T13:36:42;1.67;;;1.57;;
10902;SDS011;5504;47.312;11.060;2023-04-03T13:41:37;1.90;;;1.70;;
10902;SDS011;5504;47.312;11.060;2023-04-03T13:46:51;2.27;;;2.07;;
10902;SDS011;5504;47.312;11.060;2023-04-03T13:49:27;1.83;;;1.73;;
10902;SDS011;5504;47.312;11.060;2023-04-03T13:52:00;1.90;;;1.80;;
10902;SDS011;5504;47.312;11.060;2023-04-03T13:54:32;2.00;;;1.90;;
10902;SDS011;5504;47.312;11.060;2023-04-03T13:57:11;1.60;;;1.50;;
10902;SDS011;5504;47.312;11.060;2023-04-03T13:59:41;1.50;;;1.40;;
10902;SDS011;5504;47.312;11.060;2023-04-03T14:07:02;1.43;;;1.33;;
10902;SDS011;5504;47.312;11.060;2023-04-03T14:09:28;2.03;;;1.83;;
10902;SDS011;5504;47.312;11.060;2023-04-03T14:11:55;4.03;;;3.30;;
10902;SDS011;5504;47.312;11.060;2023-04-03T14:14:29;2.07;;;1.93;;
10902;SDS011;5504;47.312;11.060;2023-04-03T14:16:58;2.03;;;1.93;;
10902;SDS011;5504;47.312;11.060;2023-04-03T14:19:27;4.07;;;3.77;;
10902;SDS011;5504;47.312;11.060;2023-04-03T14:21:54;2.87;;;2.63;;
10902;SDS011;5504;47.312;11.060;2023-04-03T14:24:22;3.37;;;2.93;;
10902;SDS011;5504;47.312;11.060;2023-04-03T14:26:50;2.77;;;2.57;;
10902;SDS011;5504;47.312;11.060;2023-04-03T14:29:17;3.40;;;3.10;;
10902;SDS011;5504;47.312;11.060;2023-04-03T14:31:44;3.10;;;2.80;;
10902;SDS011;5504;47.312;11.060;2023-04-03T14:34:11;3.87;;;3.03;;
10902;SDS011;5504;47.312;11.060;2023-04-03T14:36:39;9.57;;;8.60;;
10902;SDS011;5504;47.312;11.060;2023-04-03T14:39:07;4.10;;;2.90;;
10902;SDS011;5504;47.312;11.060;2023-04-03T14:41:36;4.10;;;3.57;;
10902;SDS011;5504;47.312;11.060;2023-04-03T14:44:02;2.77;;;2.37;;
10902;SDS011;5504;47.312;11.060;2023-04-03T14:46:32;2.70;;;2.50;;
10902;SDS011;5504;47.312;11.060;2023-04-03T14:49:00;2.30;;;2.10;;
10902;SDS011;5504;47.312;11.060;2023-04-03T14:51:26;2.50;;;2.30;;
10902;SDS011;5504;47.312;11.060;2023-04-03T14:53:51;2.50;;;2.30;;
10902;SDS011;5504;47.312;11.060;2023-04-03T14:58:58;2.80;;;2.60;;
10902;SDS011;5504;47.312;11.060;2023-04-03T15:01:25;2.50;;;2.30;;
10902;SDS011;5504;47.312;11.060;2023-04-03T15:03:51;2.50;;;2.30;;
10902;SDS011;5504;47.312;11.060;2023-04-03T15:06:17;3.40;;;2.57;;
10902;SDS011;5504;47.312;11.060;2023-04-03T15:08:43;2.50;;;2.30;;
10902;SDS011;5504;47.312;11.060;2023-04-03T15:11:10;2.20;;;2.00;;
10902;SDS011;5504;47.312;11.060;2023-04-03T15:13:37;3.70;;;2.80;;
10902;SDS011;5504;47.312;11.060;2023-04-03T15:16:03;2.57;;;2.37;;
10902;SDS011;5504;47.312;11.060;2023-04-03T15:18:31;3.00;;;2.60;;
10902;SDS011;5504;47.312;11.060;2023-04-03T15:21:02;3.07;;;2.77;;
10902;SDS011;5504;47.312;11.060;2023-04-03T15:23:28;2.50;;;2.30;;
10902;SDS011;5504;47.312;11.060;2023-04-03T15:25:54;2.47;;;2.27;;
10902;SDS011;5504;47.312;11.060;2023-04-03T15:30:50;3.50;;;3.20;;
10902;SDS011;5504;47.312;11.060;2023-04-03T15:33:16;3.70;;;3.40;;
10902;SDS011;5504;47.312;11.060;2023-04-03T15:35:42;2.73;;;2.53;;
10902;SDS011;5504;47.312;11.060;2023-04-03T15:38:07;2.97;;;2.70;;
10902;SDS011;5504;47.312;11.060;2023-04-03T15:40:33;3.00;;;2.40;;
10902;SDS011;5504;47.312;11.060;2023-04-03T15:43:00;3.80;;;3.10;;
10902;SDS011;5504;47.312;11.060;2023-04-03T15:45:27;3.00;;;2.80;;
10902;SDS011;5504;47.312;11.060;2023-04-03T15:47:54;6.47;;;4.27;;
10902;SDS011;5504;47.312;11.060;2023-04-03T15:50:20;7.30;;;5.87;;
10902;SDS011;5504;47.312;11.060;2023-04-03T15:52:48;4.40;;;4.00;;
10902;SDS011;5504;47.312;11.060;2023-04-03T15:55:19;3.70;;;3.40;;
10902;SDS011;5504;47.312;11.060;2023-04-03T15:57:48;3.50;;;3.20;;
10902;SDS011;5504;47.312;11.060;2023-04-03T16:00:14;4.33;;;3.87;;
10902;SDS011;5504;47.312;11.060;2023-04-03T16:02:40;3.03;;;2.77;;
10902;SDS011;5504;47.312;11.060;2023-04-03T16:05:07;4.73;;;3.80;;
10902;SDS011;5504;47.312;11.060;2023-04-03T16:07:34;6.83;;;5.80;;
10902;SDS011;5504;47.312;11.060;2023-04-03T16:10:03;4.57;;;3.80;;
10902;SDS011;5504;47.312;11.060;2023-04-03T16:12:30;5.93;;;4.87;;
10902;SDS011;5504;47.312;11.060;2023-04-03T16:14:56;3.27;;;2.97;;
10902;SDS011;5504;47.312;11.060;2023-04-03T16:17:22;5.50;;;4.67;;
10902;SDS011;5504;47.312;11.060;2023-04-03T16:19:47;6.60;;;5.90;;
10902;SDS011;5504;47.312;11.060;2023-04-03T16:22:13;13.60;;;11.80;;
10902;SDS011;5504;47.312;11.060;2023-04-03T16:24:39;8.03;;;6.83;;
10902;SDS011;5504;47.312;11.060;2023-04-03T16:27:05;9.93;;;8.93;;
10902;SDS011;5504;47.312;11.060;2023-04-03T16:29:31;9.47;;;8.67;;
10902;SDS011;5504;47.312;11.060;2023-04-03T16:31:57;10.07;;;9.20;;
10902;SDS011;5504;47.312;11.060;2023-04-03T16:34:23;6.23;;;4.90;;
10902;SDS011;5504;47.312;11.060;2023-04-03T16:36:50;5.40;;;4.90;;
10902;SDS011;5504;47.312;11.060;2023-04-03T16:39:17;3.07;;;2.80;;
10902;SDS011;5504;47.312;11.060;2023-04-03T16:41:43;3.50;;;3.20;;
10902;SDS011;5504;47.312;11.060;2023-04-03T16:44:10;3.23;;;2.50;;
10902;SDS011;5504;47.312;11.060;2023-04-03T16:46:36;11.23;;;7.40;;
10902;SDS011;5504;47.312;11.060;2023-04-03T16:49:02;6.93;;;5.37;;
10902;SDS011;5504;47.312;11.060;2023-04-03T16:51:28;5.43;;;4.23;;
10902;SDS011;5504;47.312;11.060;2023-04-03T16:53:54;8.30;;;5.63;;
10902;SDS011;5504;47.312;11.060;2023-04-03T16:56:21;5.53;;;4.57;;
10902;SDS011;5504;47.312;11.060;2023-04-03T16:58:47;2.80;;;2.47;;
10902;SDS011;5504;47.312;11.060;2023-04-03T17:01:14;5.30;;;4.37;;
10902;SDS011;5504;47.312;11.060;2023-04-03T17:03:41;4.93;;;3.80;;
10902;SDS011;5504;47.312;11.060;2023-04-03T17:06:07;3.87;;;3.50;;
10902;SDS011;5504;47.312;11.060;2023-04-03T17:08:39;8.80;;;5.30;;
10902;SDS011;5504;47.312;11.060;2023-04-03T17:11:05;5.17;;;4.30;;
10902;SDS011;5504;47.312;11.060;2023-04-03T17:13:30;4.07;;;3.67;;
10902;SDS011;5504;47.312;11.060;2023-04-03T17:15:58;5.63;;;4.27;;